createdAt,value
2018-08-03T00:02:20.342Z,99.90
2018-08-03T00:04:47.978Z,99.90
2018-08-03T00:07:15.608Z,99.90
2018-08-03T00:09:43.268Z,99.90
2018-08-03T00:12:10.920Z,99.90
2018-08-03T00:19:34.386Z,99.90
2018-08-03T00:22:02.042Z,99.90
2018-08-03T00:24:29.702Z,99.90
2018-08-03T00:26:57.339Z,99.90
2018-08-03T00:29:24.999Z,99.90
2018-08-03T00:39:15.277Z,99.90
2018-08-03T00:44:10.571Z,99.90
2018-08-03T00:46:38.180Z,99.90
2018-08-03T00:51:33.443Z,99.90
2018-08-03T00:54:01.656Z,99.90
2018-08-03T00:56:29.333Z,99.90
2018-08-03T00:58:57.083Z,99.90
2018-08-03T01:01:24.781Z,99.90
2018-08-03T01:03:52.435Z,99.90
2018-08-03T01:06:20.067Z,99.90
2018-08-03T01:08:47.731Z,99.90
2018-08-03T01:11:15.391Z,99.90
2018-08-03T01:13:43.901Z,99.90
2018-08-03T01:16:11.508Z,99.90
2018-08-03T01:18:39.159Z,99.90
2018-08-03T01:21:06.928Z,99.90
2018-08-03T01:23:34.629Z,99.90
2018-08-03T01:33:24.918Z,99.90
2018-08-03T01:35:52.743Z,99.90
2018-08-03T01:40:47.924Z,99.90
2018-08-03T01:43:15.669Z,99.90
2018-08-03T01:48:10.814Z,99.90
2018-08-03T01:53:05.886Z,99.90
2018-08-03T01:58:01.051Z,99.90
2018-08-03T02:00:28.662Z,99.90
2018-08-03T02:02:56.319Z,99.90
2018-08-03T02:05:23.964Z,99.90
2018-08-03T02:10:19.138Z,99.90
2018-08-03T02:12:46.757Z,99.90
2018-08-03T02:15:14.411Z,99.90
2018-08-03T02:20:09.576Z,99.90
2018-08-03T02:22:37.342Z,99.90
2018-08-03T02:25:05.518Z,99.90
2018-08-03T02:27:33.328Z,99.90
2018-08-03T02:30:01.384Z,99.90
2018-08-03T02:32:29.059Z,99.90
2018-08-03T02:34:56.818Z,99.90
2018-08-03T02:37:24.444Z,99.90
2018-08-03T02:39:52.072Z,99.90
2018-08-03T02:42:19.698Z,99.90
2018-08-03T02:47:14.896Z,99.90
2018-08-03T02:49:42.596Z,99.90
2018-08-03T02:52:10.508Z,99.90
2018-08-03T02:54:38.127Z,99.90
2018-08-03T02:57:05.807Z,99.90
2018-08-03T03:02:00.906Z,99.90
2018-08-03T03:04:28.552Z,99.90
2018-08-03T03:06:56.397Z,99.90
2018-08-03T03:09:24.033Z,99.90
2018-08-03T03:16:46.616Z,99.90
2018-08-03T03:21:41.919Z,99.90
2018-08-03T03:26:37.218Z,99.90
2018-08-03T03:31:32.338Z,99.90
2018-08-03T03:33:59.951Z,99.90
2018-08-03T03:36:27.560Z,99.90
2018-08-03T03:38:55.274Z,99.90
2018-08-03T03:41:22.857Z,99.90
2018-08-03T03:43:50.483Z,99.90
2018-08-03T03:48:45.600Z,99.90
2018-08-03T03:51:13.178Z,99.90
2018-08-03T03:56:08.360Z,99.90
2018-08-03T03:58:35.977Z,99.90
2018-08-03T04:03:31.335Z,99.90
2018-08-03T04:05:59.025Z,99.90
2018-08-03T04:08:26.662Z,99.90
2018-08-03T04:18:19.620Z,99.90
2018-08-03T04:20:47.480Z,99.90
2018-08-03T04:23:15.114Z,99.90
2018-08-03T04:28:10.523Z,99.90
2018-08-03T04:30:38.139Z,99.90
2018-08-03T04:33:05.742Z,99.90
2018-08-03T04:35:33.343Z,99.90
2018-08-03T04:38:00.974Z,99.90
2018-08-03T04:40:28.625Z,99.90
2018-08-03T04:42:56.215Z,99.90
2018-08-03T04:45:23.838Z,99.90
2018-08-03T04:47:51.457Z,99.90
2018-08-03T04:50:19.234Z,99.90
2018-08-03T04:52:46.920Z,99.90
2018-08-03T04:57:42.107Z,99.90
2018-08-03T05:00:09.749Z,99.90
2018-08-03T05:02:37.365Z,99.90
2018-08-03T05:10:00.039Z,99.90
2018-08-03T05:12:27.764Z,99.90
2018-08-03T05:17:22.893Z,99.90
2018-08-03T05:22:18.028Z,99.90
2018-08-03T05:24:45.647Z,99.90
2018-08-03T05:27:13.282Z,99.90
2018-08-03T05:29:40.904Z,99.90
2018-08-03T05:32:08.535Z,99.90
2018-08-03T05:34:36.182Z,99.90
2018-08-03T05:37:03.860Z,99.90
2018-08-03T05:39:31.578Z,99.90
2018-08-03T05:41:59.220Z,99.90
2018-08-03T05:44:26.847Z,99.90
2018-08-03T05:49:21.983Z,99.90
2018-08-03T05:51:49.638Z,99.90
2018-08-03T05:56:44.749Z,99.90
2018-08-03T05:59:12.324Z,99.90
2018-08-03T06:01:39.958Z,99.90
2018-08-03T06:04:07.736Z,99.90
2018-08-03T06:06:35.274Z,99.90
2018-08-03T06:11:31.838Z,99.90
2018-08-03T06:13:59.520Z,99.90
2018-08-03T06:16:27.122Z,99.90
2018-08-03T06:18:54.764Z,99.90
2018-08-03T06:21:22.509Z,99.90
2018-08-03T06:23:50.126Z,99.90
2018-08-03T06:26:17.798Z,99.90
2018-08-03T06:28:45.503Z,99.90
2018-08-03T06:31:13.116Z,99.90
2018-08-03T06:33:40.773Z,99.90
2018-08-03T06:36:08.440Z,99.90
2018-08-03T06:38:36.079Z,99.90
2018-08-03T06:41:03.834Z,99.90
2018-08-03T06:43:31.509Z,99.90
2018-08-03T06:45:59.113Z,99.90
2018-08-03T06:48:26.732Z,99.90
2018-08-03T06:50:54.309Z,99.90
2018-08-03T06:53:21.975Z,99.00
2018-08-03T07:00:44.640Z,99.60
2018-08-03T07:05:39.924Z,97.90
2018-08-03T07:08:07.545Z,97.90
2018-08-03T07:15:32.853Z,96.70
2018-08-03T07:18:00.531Z,96.10
2018-08-03T07:20:28.419Z,96.10
2018-08-03T07:25:23.709Z,94.30
2018-08-03T07:27:52.089Z,94.60
2018-08-03T07:30:19.750Z,94.70
2018-08-03T07:32:48.162Z,95.00
2018-08-03T07:35:15.911Z,95.10
2018-08-03T07:37:43.546Z,93.80
2018-08-03T07:42:38.975Z,92.80
2018-08-03T07:47:34.329Z,92.70
2018-08-03T07:52:29.882Z,90.90
2018-08-03T07:54:57.511Z,92.20
2018-08-03T07:57:25.226Z,90.70
2018-08-03T07:59:52.830Z,90.10
2018-08-03T08:02:20.592Z,90.10
2018-08-03T08:04:48.207Z,90.90
2018-08-03T08:09:43.481Z,91.30
2018-08-03T08:14:38.616Z,90.70
2018-08-03T08:17:06.464Z,90.90
2018-08-03T08:19:34.110Z,90.80
2018-08-03T08:22:01.825Z,90.80
2018-08-03T08:24:29.714Z,91.50
2018-08-03T08:26:57.385Z,90.50
2018-08-03T08:29:25.070Z,90.00
2018-08-03T08:31:52.686Z,89.40
2018-08-03T08:34:20.370Z,86.80
2018-08-03T08:36:48.119Z,87.20
2018-08-03T08:39:15.796Z,84.40
2018-08-03T08:41:43.468Z,86.50
2018-08-03T08:44:11.956Z,87.30
2018-08-03T08:46:39.795Z,85.60
2018-08-03T08:49:07.498Z,86.70
2018-08-03T08:51:35.144Z,86.30
2018-08-03T08:54:02.800Z,82.40
2018-08-03T08:56:30.444Z,82.20
2018-08-03T08:58:58.125Z,78.00
2018-08-03T09:01:26.006Z,77.40
2018-08-03T09:03:54.325Z,73.80
2018-08-03T09:06:21.936Z,76.80
2018-08-03T09:08:49.526Z,75.70
2018-08-03T09:11:17.185Z,75.60
2018-08-03T09:13:44.887Z,76.70
2018-08-03T09:16:12.572Z,76.20
2018-08-03T09:18:40.200Z,72.80
2018-08-03T09:21:07.836Z,74.20
2018-08-03T09:23:35.428Z,72.80
2018-08-03T09:26:03.127Z,71.30
2018-08-03T09:28:30.781Z,67.20
2018-08-03T09:30:58.447Z,68.40
2018-08-03T09:33:26.233Z,68.40
2018-08-03T09:35:53.885Z,66.70
2018-08-03T09:38:21.590Z,70.20
2018-08-03T09:40:49.201Z,67.90
2018-08-03T09:43:16.871Z,68.50
2018-08-03T09:45:44.496Z,66.40
2018-08-03T09:48:12.175Z,68.00
2018-08-03T09:50:39.836Z,65.20
2018-08-03T09:53:07.430Z,64.10
2018-08-03T09:55:35.105Z,65.80
2018-08-03T09:58:02.777Z,64.90
2018-08-03T10:00:36.111Z,64.00
2018-08-03T10:03:13.261Z,66.30
2018-08-03T10:05:40.943Z,63.30
2018-08-03T10:08:08.576Z,62.20
2018-08-03T10:10:36.265Z,65.80
2018-08-03T10:13:03.907Z,64.00
2018-08-03T10:15:31.604Z,65.30
2018-08-03T10:17:59.210Z,62.20
2018-08-03T10:22:54.394Z,64.00
2018-08-03T10:25:22.067Z,63.40
2018-08-03T10:27:49.665Z,64.30
2018-08-03T10:30:17.337Z,62.90
2018-08-03T10:32:44.996Z,61.90
2018-08-03T10:35:12.708Z,60.00
2018-08-03T10:37:40.349Z,61.40
2018-08-03T10:40:07.976Z,60.10
2018-08-03T10:42:35.660Z,59.30
2018-08-03T10:45:03.414Z,61.20
2018-08-03T10:47:31.116Z,60.90
2018-08-03T10:49:58.781Z,61.90
2018-08-03T10:52:26.445Z,63.20
2018-08-03T10:54:54.203Z,63.20
2018-08-03T10:57:21.838Z,63.40
2018-08-03T10:59:49.507Z,66.20
2018-08-03T11:02:17.267Z,64.40
2018-08-03T11:04:45.012Z,62.20
2018-08-03T11:07:12.748Z,60.40
2018-08-03T11:09:40.397Z,62.10
2018-08-03T11:12:08.055Z,62.30
2018-08-03T11:14:35.681Z,64.30
2018-08-03T11:17:03.366Z,62.00
2018-08-03T11:19:31.001Z,62.60
2018-08-03T11:21:58.725Z,61.20
2018-08-03T11:24:26.405Z,62.10
2018-08-03T11:26:54.133Z,61.50
2018-08-03T11:29:21.860Z,61.80
2018-08-03T11:31:49.471Z,62.00
2018-08-03T11:34:17.213Z,64.50
2018-08-03T11:36:44.840Z,65.70
2018-08-03T11:39:12.548Z,65.30
2018-08-03T11:41:40.252Z,67.60
2018-08-03T11:44:07.963Z,67.10
2018-08-03T11:46:35.717Z,68.50
2018-08-03T11:51:31.006Z,64.50
2018-08-03T11:53:58.621Z,64.10
2018-08-03T11:56:26.317Z,64.10
2018-08-03T11:58:53.966Z,63.90
2018-08-03T12:01:21.816Z,66.20
2018-08-03T12:03:49.551Z,61.30
2018-08-03T12:06:17.183Z,59.00
2018-08-03T12:08:44.843Z,59.80
2018-08-03T12:11:12.505Z,59.60
2018-08-03T12:13:40.131Z,60.70
2018-08-03T12:16:07.803Z,60.10
2018-08-03T12:18:35.456Z,60.70
2018-08-03T12:21:03.232Z,65.30
2018-08-03T12:23:31.005Z,62.10
2018-08-03T12:25:58.647Z,58.80
2018-08-03T12:28:26.267Z,57.80
2018-08-03T12:30:53.986Z,55.50
2018-08-03T12:33:21.806Z,52.80
2018-08-03T12:35:49.475Z,52.00
2018-08-03T12:38:17.116Z,52.60
2018-08-03T12:40:44.827Z,47.20
2018-08-03T12:43:12.523Z,48.00
2018-08-03T12:45:40.132Z,47.00
2018-08-03T12:48:07.823Z,47.10
2018-08-03T12:50:35.550Z,46.50
2018-08-03T12:53:03.271Z,45.80
2018-08-03T12:55:30.952Z,45.10
2018-08-03T12:57:58.606Z,47.60
2018-08-03T13:00:26.266Z,46.90
2018-08-03T13:02:53.902Z,48.90
2018-08-03T13:05:21.603Z,49.10
2018-08-03T13:07:49.408Z,47.40
2018-08-03T13:10:17.034Z,48.90
2018-08-03T13:12:44.708Z,50.50
2018-08-03T13:15:12.403Z,51.60
2018-08-03T13:17:40.175Z,51.50
2018-08-03T13:20:07.968Z,54.00
2018-08-03T13:22:35.588Z,54.40
2018-08-03T13:25:03.633Z,50.50
2018-08-03T13:27:31.446Z,49.10
2018-08-03T13:29:59.324Z,47.80
2018-08-03T13:32:27.038Z,47.20
2018-08-03T13:34:54.681Z,49.40
2018-08-03T13:37:22.328Z,51.20
2018-08-03T13:39:50.130Z,51.20
2018-08-03T13:42:17.750Z,52.60
2018-08-03T13:44:45.458Z,48.40
2018-08-03T13:47:13.112Z,46.20
2018-08-03T13:49:40.805Z,45.40
2018-08-03T13:52:08.537Z,45.50
2018-08-03T13:54:36.296Z,40.80
2018-08-03T13:57:04.359Z,41.70
2018-08-03T13:59:32.077Z,41.30
2018-08-03T14:02:10.792Z,40.30
2018-08-03T14:04:38.557Z,40.40
2018-08-03T14:07:06.376Z,40.10
2018-08-03T14:09:34.052Z,40.80
2018-08-03T14:12:01.901Z,39.70
2018-08-03T14:14:29.627Z,40.40
2018-08-03T14:16:57.411Z,40.90
2018-08-03T14:19:25.223Z,41.40
2018-08-03T14:21:52.998Z,40.90
2018-08-03T14:24:20.882Z,41.40
2018-08-03T14:26:48.646Z,39.80
2018-08-03T14:29:16.387Z,39.50
2018-08-03T14:31:44.290Z,39.80
2018-08-03T14:34:12.169Z,39.30
2018-08-03T14:36:39.991Z,39.90
2018-08-03T14:39:08.757Z,42.90
2018-08-03T14:41:36.755Z,43.20
2018-08-03T14:44:04.877Z,45.90
2018-08-03T14:46:32.657Z,48.20
2018-08-03T14:49:00.317Z,48.90
2018-08-03T14:51:28.136Z,49.00
2018-08-03T14:53:55.851Z,50.40
2018-08-03T14:56:23.567Z,51.20
2018-08-03T14:58:51.533Z,49.80
2018-08-03T15:01:19.210Z,48.50
2018-08-03T15:03:46.889Z,46.30
2018-08-03T15:06:14.563Z,44.80
2018-08-03T15:08:42.344Z,45.80
2018-08-03T15:11:10.007Z,43.80
2018-08-03T15:13:37.742Z,42.70
2018-08-03T15:16:05.553Z,41.50
2018-08-03T15:18:33.226Z,41.00
2018-08-03T15:21:00.972Z,42.10
2018-08-03T15:23:28.572Z,42.30
2018-08-03T15:25:56.392Z,40.90
2018-08-03T15:28:24.012Z,41.70
2018-08-03T15:30:51.812Z,44.20
2018-08-03T15:33:19.496Z,45.10
2018-08-03T15:35:47.290Z,46.20
2018-08-03T15:38:15.024Z,47.70
2018-08-03T15:40:42.733Z,48.40
2018-08-03T15:43:10.399Z,49.90
2018-08-03T15:45:38.174Z,51.60
2018-08-03T15:48:05.857Z,54.10
2018-08-03T15:50:33.597Z,54.70
2018-08-03T15:53:01.367Z,55.90
2018-08-03T15:55:29.074Z,55.70
2018-08-03T15:57:56.747Z,57.40
2018-08-03T16:00:24.438Z,61.30
2018-08-03T16:02:52.163Z,55.40
2018-08-03T16:05:19.808Z,55.40
2018-08-03T16:07:47.527Z,56.40
2018-08-03T16:10:15.183Z,52.00
2018-08-03T16:12:43.029Z,51.90
2018-08-03T16:15:10.652Z,50.90
2018-08-03T16:17:38.500Z,51.20
2018-08-03T16:20:06.138Z,51.60
2018-08-03T16:22:33.874Z,50.50
2018-08-03T16:27:29.212Z,51.10
2018-08-03T16:29:57.004Z,51.40
2018-08-03T16:32:24.775Z,50.70
2018-08-03T16:34:52.507Z,52.70
2018-08-03T16:37:20.192Z,51.90
2018-08-03T16:39:48.058Z,50.60
2018-08-03T16:42:15.732Z,51.30
2018-08-03T16:44:43.502Z,52.90
2018-08-03T16:47:11.152Z,53.40
2018-08-03T16:49:38.842Z,51.90
2018-08-03T16:52:06.599Z,52.90
2018-08-03T16:54:34.324Z,51.40
2018-08-03T16:57:01.926Z,50.80
2018-08-03T16:59:29.575Z,52.70
2018-08-03T17:01:57.367Z,52.90
2018-08-03T17:04:24.984Z,53.00
2018-08-03T17:06:52.665Z,52.40
2018-08-03T17:09:20.312Z,54.60
2018-08-03T17:11:48.080Z,55.40
2018-08-03T17:14:15.819Z,53.10
2018-08-03T17:16:43.486Z,55.60
2018-08-03T17:19:11.167Z,55.70
2018-08-03T17:21:38.900Z,55.40
2018-08-03T17:24:06.559Z,54.80
2018-08-03T17:26:34.279Z,56.50
2018-08-03T17:29:01.934Z,57.00
2018-08-03T17:31:29.609Z,56.00
2018-08-03T17:33:57.237Z,55.00
2018-08-03T17:36:24.932Z,55.80
2018-08-03T17:38:52.703Z,56.40
2018-08-03T17:41:20.441Z,57.00
2018-08-03T17:43:48.144Z,56.40
2018-08-03T17:46:15.887Z,56.30
2018-08-03T17:48:43.608Z,55.60
2018-08-03T17:51:11.424Z,57.40
2018-08-03T17:53:39.105Z,58.20
2018-08-03T17:56:06.895Z,57.80
2018-08-03T17:58:34.590Z,58.20
2018-08-03T18:01:02.315Z,59.20
2018-08-03T18:03:30.093Z,59.60
2018-08-03T18:05:57.942Z,59.70
2018-08-03T18:08:25.584Z,62.40
2018-08-03T18:10:53.303Z,60.70
2018-08-03T18:13:21.084Z,61.80
2018-08-03T18:15:48.922Z,63.70
2018-08-03T18:18:16.647Z,64.40
2018-08-03T18:20:44.377Z,65.50
2018-08-03T18:23:12.085Z,66.50
2018-08-03T18:25:39.801Z,67.30
2018-08-03T18:28:07.606Z,67.90
2018-08-03T18:30:35.289Z,69.60
2018-08-03T18:33:03.040Z,71.10
2018-08-03T18:35:30.734Z,71.00
2018-08-03T18:37:58.460Z,72.10
2018-08-03T18:40:26.102Z,73.30
2018-08-03T18:42:53.778Z,74.00
2018-08-03T18:45:21.501Z,76.00
2018-08-03T18:47:49.208Z,76.70
2018-08-03T18:50:16.933Z,77.50
2018-08-03T18:52:44.613Z,79.00
2018-08-03T18:55:12.309Z,80.10
2018-08-03T18:57:40.185Z,80.80
2018-08-03T19:00:07.823Z,81.90
2018-08-03T19:02:35.465Z,82.40
2018-08-03T19:05:03.430Z,83.50
2018-08-03T19:07:31.177Z,84.00
2018-08-03T19:09:58.837Z,84.00
2018-08-03T19:12:26.503Z,86.20
2018-08-03T19:14:54.285Z,87.30
2018-08-03T19:17:22.034Z,88.80
2018-08-03T19:19:49.829Z,89.40
2018-08-03T19:22:17.455Z,90.20
2018-08-03T19:24:45.185Z,90.40
2018-08-03T19:27:12.832Z,90.60
2018-08-03T19:29:40.610Z,91.20
2018-08-03T19:32:08.391Z,91.60
2018-08-03T19:34:36.173Z,91.90
2018-08-03T19:37:03.987Z,92.60
2018-08-03T19:39:31.718Z,92.90
2018-08-03T19:44:27.013Z,93.80
2018-08-03T19:46:54.832Z,94.00
2018-08-03T19:51:50.059Z,95.00
2018-08-03T19:54:18.049Z,95.60
2018-08-03T19:56:45.979Z,95.40
2018-08-03T19:59:13.740Z,95.60
2018-08-03T20:01:41.650Z,95.50
2018-08-03T20:04:09.375Z,96.00
2018-08-03T20:06:37.372Z,96.30
2018-08-03T20:09:07.594Z,96.50
2018-08-03T20:11:35.404Z,96.80
2018-08-03T20:14:03.227Z,96.70
2018-08-03T20:16:31.045Z,97.00
2018-08-03T20:18:58.810Z,97.10
2018-08-03T20:21:26.466Z,97.50
2018-08-03T20:23:54.205Z,97.70
2018-08-03T20:26:21.935Z,97.60
2018-08-03T20:28:49.680Z,97.80
2018-08-03T20:31:17.344Z,97.90
2018-08-03T20:33:45.229Z,98.10
2018-08-03T20:36:13.016Z,98.40
2018-08-03T20:38:40.834Z,98.60
2018-08-03T20:41:08.584Z,98.80
2018-08-03T20:43:36.348Z,98.80
2018-08-03T20:46:04.003Z,98.70
2018-08-03T20:48:31.774Z,98.90
2018-08-03T20:50:59.467Z,99.10
2018-08-03T20:53:27.294Z,99.20
2018-08-03T20:55:55.078Z,99.50
2018-08-03T20:58:22.958Z,99.50
2018-08-03T21:00:50.756Z,99.90
2018-08-03T21:03:18.585Z,99.90
2018-08-03T21:05:46.352Z,99.90
2018-08-03T21:08:14.214Z,99.90
2018-08-03T21:10:42.095Z,99.90
2018-08-03T21:13:09.960Z,99.90
2018-08-03T21:15:37.664Z,99.90
2018-08-03T21:18:05.426Z,99.90
2018-08-03T21:20:33.345Z,99.90
2018-08-03T21:23:01.040Z,99.90
2018-08-03T21:25:28.820Z,99.90
2018-08-03T21:27:56.458Z,99.90
2018-08-03T21:30:24.134Z,99.90
2018-08-03T21:32:51.764Z,99.90
2018-08-03T21:35:19.478Z,99.90
2018-08-03T21:37:47.153Z,99.90
2018-08-03T21:40:14.874Z,99.90
2018-08-03T21:42:42.562Z,99.90
2018-08-03T21:45:10.252Z,99.90
2018-08-03T21:47:37.880Z,99.90
2018-08-03T21:50:05.855Z,99.90
2018-08-03T21:52:33.584Z,99.90
2018-08-03T21:55:01.252Z,99.90
2018-08-03T21:57:28.990Z,99.90
2018-08-03T21:59:56.743Z,99.90
2018-08-03T22:02:24.537Z,99.90
2018-08-03T22:04:52.196Z,99.90
2018-08-03T22:07:20.496Z,99.90
2018-08-03T22:09:48.205Z,99.90
2018-08-03T22:12:15.992Z,99.90
2018-08-03T22:17:11.459Z,99.90
2018-08-03T22:19:39.114Z,99.90
2018-08-03T22:24:34.525Z,99.90
2018-08-03T22:27:02.404Z,99.90
2018-08-03T22:29:30.070Z,99.90
2018-08-03T22:31:57.891Z,99.90
2018-08-03T22:34:25.612Z,99.90
2018-08-03T22:36:53.324Z,99.90
2018-08-03T22:39:21.000Z,99.90
2018-08-03T22:41:48.679Z,99.90
2018-08-03T22:44:16.303Z,99.90
2018-08-03T22:46:44.004Z,99.90
2018-08-03T22:49:11.699Z,99.90
2018-08-03T22:51:39.313Z,99.90
2018-08-03T22:54:07.030Z,99.90
2018-08-03T22:56:34.785Z,99.90
2018-08-03T22:59:02.510Z,99.90
2018-08-03T23:01:30.170Z,99.90
2018-08-03T23:03:57.978Z,99.90
2018-08-03T23:06:25.658Z,99.90
2018-08-03T23:08:53.359Z,99.90
2018-08-03T23:11:20.999Z,99.90
2018-08-03T23:13:48.724Z,99.90
2018-08-03T23:16:16.450Z,99.90
2018-08-03T23:18:44.100Z,99.90
2018-08-03T23:21:11.750Z,99.90
2018-08-03T23:23:39.391Z,99.90
2018-08-03T23:26:07.045Z,99.90
2018-08-03T23:28:34.703Z,99.90
2018-08-03T23:31:02.423Z,99.90
2018-08-03T23:35:57.613Z,99.90
2018-08-03T23:38:25.334Z,99.90
2018-08-03T23:43:20.509Z,99.90
2018-08-03T23:45:48.274Z,99.90
2018-08-03T23:48:15.890Z,99.90
2018-08-03T23:50:43.601Z,99.90
2018-08-03T23:53:11.196Z,99.90
2018-08-03T23:55:38.819Z,99.90
2018-08-03T23:58:06.500Z,99.90
